createdAt,value
2019-05-07T00:00:43.923Z,5.93
2019-05-07T00:03:12.408Z,6.23
2019-05-07T00:05:42.616Z,7.17
2019-05-07T00:08:12.217Z,5.83
2019-05-07T00:10:42.409Z,6.43
2019-05-07T00:13:09.871Z,6.17
2019-05-07T00:15:37.916Z,6.50
2019-05-07T00:18:05.986Z,6.83
2019-05-07T00:20:34.029Z,6.50
2019-05-07T00:23:02.899Z,6.80
2019-05-07T00:25:32.979Z,7.07
2019-05-07T00:28:02.722Z,6.43
2019-05-07T00:30:33.033Z,6.43
2019-05-07T00:33:02.754Z,6.57
2019-05-07T00:35:32.465Z,6.83
2019-05-07T00:38:02.599Z,6.53
2019-05-07T00:40:42.597Z,7.23
2019-05-07T00:43:12.339Z,7.20
2019-05-07T00:45:42.216Z,7.43
2019-05-07T00:48:12.517Z,7.87
2019-05-07T00:50:42.047Z,7.63
2019-05-07T00:53:10.126Z,7.30
2019-05-07T00:55:38.217Z,7.90
2019-05-07T00:58:06.474Z,8.70
2019-05-07T01:00:34.526Z,7.70
2019-05-07T01:03:03.146Z,8.13
2019-05-07T01:05:32.619Z,7.70
2019-05-07T01:08:02.558Z,8.13
2019-05-07T01:10:32.915Z,8.57
2019-05-07T01:13:02.570Z,8.80
2019-05-07T01:15:32.083Z,8.90
2019-05-07T01:18:02.719Z,7.93
2019-05-07T01:20:30.198Z,8.53
2019-05-07T01:22:59.078Z,8.60
2019-05-07T01:25:28.057Z,8.37
2019-05-07T01:27:56.826Z,8.33
2019-05-07T01:30:24.874Z,7.97
2019-05-07T01:32:54.599Z,8.70
2019-05-07T01:35:24.283Z,8.30
2019-05-07T01:37:52.485Z,7.20
2019-05-07T01:40:22.739Z,7.70
2019-05-07T01:42:50.372Z,7.70
2019-05-07T01:45:18.411Z,8.07
2019-05-07T01:47:46.535Z,8.93
2019-05-07T01:50:14.651Z,8.30
2019-05-07T01:52:42.808Z,8.33
2019-05-07T01:55:12.978Z,8.57
2019-05-07T01:57:42.096Z,7.83
2019-05-07T02:00:12.903Z,8.40
2019-05-07T02:02:48.067Z,7.63
2019-05-07T02:05:26.901Z,8.33
2019-05-07T02:07:56.610Z,8.53
2019-05-07T02:10:28.986Z,8.23
2019-05-07T02:12:57.093Z,8.17
2019-05-07T02:15:25.167Z,7.87
2019-05-07T02:17:53.286Z,8.67
2019-05-07T02:20:22.557Z,8.17
2019-05-07T02:22:53.018Z,8.10
2019-05-07T02:25:22.130Z,7.63
2019-05-07T02:27:50.263Z,7.80
2019-05-07T02:30:19.044Z,8.10
2019-05-07T02:32:47.099Z,7.20
2019-05-07T02:35:15.145Z,7.43
2019-05-07T02:37:51.249Z,7.77
2019-05-07T02:40:19.277Z,7.47
2019-05-07T02:42:47.314Z,7.80
2019-05-07T02:45:17.573Z,7.40
2019-05-07T02:47:45.621Z,7.27
2019-05-07T02:50:22.768Z,6.80
2019-05-07T02:52:53.584Z,6.77
2019-05-07T02:55:23.674Z,6.63
2019-05-07T02:57:54.003Z,6.77
2019-05-07T03:00:24.266Z,6.93
2019-05-07T03:02:53.044Z,6.97
2019-05-07T03:05:22.984Z,6.70
2019-05-07T03:07:53.604Z,7.07
2019-05-07T03:10:23.718Z,6.87
2019-05-07T03:12:53.371Z,6.60
2019-05-07T03:15:20.155Z,6.50
2019-05-07T03:17:48.195Z,6.70
2019-05-07T03:20:24.464Z,6.27
2019-05-07T03:22:53.839Z,6.70
2019-05-07T03:25:23.740Z,14.57
2019-05-07T03:27:53.611Z,7.30
2019-05-07T03:30:25.975Z,6.60
2019-05-07T03:33:16.058Z,6.73
2019-05-07T03:35:46.788Z,6.70
2019-05-07T03:38:14.370Z,6.90
2019-05-07T03:40:44.829Z,7.07
2019-05-07T03:43:13.953Z,7.17
2019-05-07T03:45:46.688Z,6.73
2019-05-07T03:48:16.303Z,7.13
2019-05-07T03:50:44.351Z,6.67
2019-05-07T03:53:14.342Z,6.70
2019-05-07T03:55:44.538Z,6.87
2019-05-07T03:58:14.635Z,6.67
2019-05-07T04:00:44.253Z,6.60
2019-05-07T04:03:13.461Z,7.03
2019-05-07T04:05:43.299Z,6.80
2019-05-07T04:08:13.138Z,7.53
2019-05-07T04:10:43.782Z,7.47
2019-05-07T04:13:13.453Z,9.33
2019-05-07T04:15:43.542Z,6.80
2019-05-07T04:18:13.134Z,7.23
2019-05-07T04:20:43.180Z,7.03
2019-05-07T04:23:09.918Z,7.67
2019-05-07T04:25:45.579Z,7.37
2019-05-07T04:28:23.545Z,6.83
2019-05-07T04:30:53.311Z,6.23
2019-05-07T04:33:23.672Z,7.23
2019-05-07T04:36:02.889Z,8.67
2019-05-07T04:38:33.144Z,8.10
2019-05-07T04:41:03.602Z,8.43
2019-05-07T04:43:30.088Z,7.97
2019-05-07T04:45:58.134Z,7.53
2019-05-07T04:48:26.180Z,7.77
2019-05-07T04:50:55.959Z,7.70
2019-05-07T04:53:24.081Z,8.63
2019-05-07T04:55:53.582Z,7.73
2019-05-07T04:58:23.742Z,7.10
2019-05-07T05:00:53.766Z,8.00
2019-05-07T05:03:23.889Z,7.90
2019-05-07T05:05:53.671Z,7.73
2019-05-07T05:08:23.473Z,7.87
2019-05-07T05:10:53.780Z,8.70
2019-05-07T05:13:23.536Z,8.17
2019-05-07T05:15:52.742Z,7.60
2019-05-07T05:18:21.889Z,7.70
2019-05-07T05:21:07.089Z,7.40
2019-05-07T05:23:41.769Z,7.30
2019-05-07T05:26:09.215Z,7.60
2019-05-07T05:28:37.275Z,7.63
2019-05-07T05:31:06.798Z,8.93
2019-05-07T05:33:34.839Z,9.30
2019-05-07T05:36:03.159Z,8.03
2019-05-07T05:38:32.870Z,8.30
2019-05-07T05:41:02.720Z,8.77
2019-05-07T05:43:39.482Z,8.60
2019-05-07T05:46:09.167Z,9.07
2019-05-07T05:48:37.220Z,8.57
2019-05-07T05:51:23.091Z,8.10
2019-05-07T05:53:52.785Z,8.00
2019-05-07T05:56:22.901Z,7.73
2019-05-07T05:58:55.315Z,8.37
2019-05-07T06:01:27.634Z,7.73
2019-05-07T06:03:57.313Z,8.23
2019-05-07T06:06:29.842Z,8.73
2019-05-07T06:09:08.406Z,8.47
2019-05-07T06:11:38.123Z,8.50
2019-05-07T06:14:07.874Z,9.00
2019-05-07T06:16:37.566Z,8.93
2019-05-07T06:19:23.239Z,9.40
2019-05-07T06:21:58.612Z,8.70
2019-05-07T06:24:31.773Z,8.83
2019-05-07T06:26:59.926Z,8.67
2019-05-07T06:29:27.987Z,8.73
2019-05-07T06:32:02.493Z,8.90
2019-05-07T06:34:30.364Z,8.77
2019-05-07T06:36:58.774Z,9.20
2019-05-07T06:39:32.841Z,8.40
2019-05-07T06:42:18.809Z,8.43
2019-05-07T06:44:48.518Z,9.07
2019-05-07T06:47:16.563Z,9.60
2019-05-07T06:49:44.615Z,9.73
2019-05-07T06:52:12.751Z,8.73
2019-05-07T06:54:42.844Z,9.10
2019-05-07T06:57:12.891Z,9.50
2019-05-07T06:59:44.996Z,7.87
2019-05-07T07:02:29.745Z,9.27
2019-05-07T07:04:59.445Z,8.63
2019-05-07T07:07:33.848Z,9.10
2019-05-07T07:10:06.567Z,8.60
2019-05-07T07:12:34.634Z,9.50
2019-05-07T07:15:02.950Z,8.97
2019-05-07T07:17:32.686Z,10.07
2019-05-07T07:20:02.092Z,10.10
2019-05-07T07:22:31.927Z,9.70
2019-05-07T07:25:02.390Z,9.47
2019-05-07T07:27:32.038Z,9.57
2019-05-07T07:30:04.284Z,11.30
2019-05-07T07:32:33.970Z,11.37
2019-05-07T07:35:02.491Z,13.63
2019-05-07T07:37:32.267Z,12.80
2019-05-07T07:40:07.966Z,12.07
2019-05-07T07:42:36.070Z,12.30
2019-05-07T07:45:15.686Z,11.87
2019-05-07T07:47:44.586Z,12.80
2019-05-07T07:50:13.025Z,12.87
2019-05-07T07:52:42.012Z,12.57
2019-05-07T07:55:10.229Z,12.73
2019-05-07T07:57:42.956Z,11.37
2019-05-07T08:00:12.708Z,12.23
2019-05-07T08:02:42.540Z,12.27
2019-05-07T08:05:12.527Z,10.90
2019-05-07T08:07:42.573Z,13.33
2019-05-07T08:10:12.856Z,11.30
2019-05-07T08:12:42.202Z,11.27
2019-05-07T08:15:18.041Z,10.83
2019-05-07T08:17:41.905Z,10.67
2019-05-07T08:20:12.770Z,9.43
2019-05-07T08:22:42.309Z,9.17
2019-05-07T08:25:12.521Z,9.07
2019-05-07T08:27:41.985Z,9.40
2019-05-07T08:30:12.081Z,9.60
2019-05-07T08:32:56.737Z,10.43
2019-05-07T08:35:29.150Z,9.83
2019-05-07T08:37:57.205Z,8.90
2019-05-07T08:40:25.348Z,10.07
2019-05-07T08:42:53.966Z,11.17
2019-05-07T08:45:43.029Z,10.23
2019-05-07T08:48:15.069Z,10.50
2019-05-07T08:50:43.113Z,9.47
2019-05-07T08:53:13.191Z,8.40
2019-05-07T08:55:42.446Z,8.90
2019-05-07T08:58:12.024Z,9.87
2019-05-07T09:00:41.765Z,9.53
2019-05-07T09:03:20.153Z,9.13
2019-05-07T09:05:39.699Z,8.90
2019-05-07T09:08:07.767Z,8.37
2019-05-07T09:10:35.821Z,8.00
2019-05-07T09:13:03.854Z,7.67
2019-05-07T09:15:32.430Z,7.87
2019-05-07T09:18:02.081Z,8.20
2019-05-07T09:20:32.100Z,8.60
2019-05-07T09:23:01.980Z,7.97
2019-05-07T09:25:32.502Z,7.30
2019-05-07T09:28:02.536Z,7.70
2019-05-07T09:33:35.709Z,7.27
2019-05-07T09:36:04.451Z,7.53
2019-05-07T09:38:32.854Z,7.30
2019-05-07T09:41:02.726Z,7.53
2019-05-07T09:43:32.488Z,7.80
2019-05-07T09:46:02.601Z,8.63
2019-05-07T09:48:31.010Z,7.77
2019-05-07T09:50:59.062Z,8.30
2019-05-07T09:53:27.111Z,7.60
2019-05-07T09:55:55.186Z,7.40
2019-05-07T09:58:35.791Z,7.53
2019-05-07T10:00:53.071Z,7.47
2019-05-07T10:03:22.782Z,8.27
2019-05-07T10:05:51.888Z,7.93
2019-05-07T10:08:20.049Z,8.80
2019-05-07T10:10:50.655Z,7.73
2019-05-07T10:13:20.290Z,7.30
2019-05-07T10:15:48.874Z,6.70
2019-05-07T10:18:18.602Z,7.47
2019-05-07T10:20:46.868Z,7.17
2019-05-07T10:23:22.996Z,6.97
2019-05-07T10:25:51.041Z,6.97
2019-05-07T10:28:19.088Z,6.50
2019-05-07T10:30:47.134Z,6.77
2019-05-07T10:33:15.269Z,6.33
2019-05-07T10:35:43.511Z,6.10
2019-05-07T10:38:12.436Z,7.23
2019-05-07T10:40:40.721Z,5.47
2019-05-07T10:43:08.806Z,5.87
2019-05-07T10:45:44.409Z,4.47
2019-05-07T10:48:22.891Z,3.80
2019-05-07T10:51:01.959Z,3.40
2019-05-07T10:53:29.627Z,3.47
2019-05-07T10:55:57.665Z,4.17
2019-05-07T10:58:25.817Z,4.03
2019-05-07T11:00:54.685Z,4.33
2019-05-07T11:03:22.802Z,4.47
2019-05-07T11:05:50.853Z,5.17
2019-05-07T11:08:18.907Z,5.13
2019-05-07T11:10:46.952Z,4.80
2019-05-07T11:13:15.007Z,4.50
2019-05-07T11:15:44.686Z,4.90
2019-05-07T11:18:17.018Z,5.13
2019-05-07T11:20:50.156Z,4.70
2019-05-07T11:23:14.895Z,5.50
2019-05-07T11:25:42.935Z,5.07
2019-05-07T11:28:12.397Z,5.40
2019-05-07T11:30:42.585Z,4.90
2019-05-07T11:33:12.564Z,4.77
2019-05-07T11:35:42.085Z,4.33
2019-05-07T11:38:18.694Z,3.80
2019-05-07T11:40:39.749Z,4.50
2019-05-07T11:43:09.465Z,3.70
2019-05-07T11:45:48.239Z,3.93
2019-05-07T11:48:17.403Z,3.57
2019-05-07T11:51:04.356Z,3.70
2019-05-07T11:53:36.002Z,3.63
2019-05-07T11:56:04.048Z,4.17
2019-05-07T11:58:32.655Z,3.87
2019-05-07T12:01:13.533Z,3.80
2019-05-07T12:03:42.874Z,3.80
2019-05-07T12:06:12.454Z,3.60
2019-05-07T12:08:45.893Z,3.57
2019-05-07T12:11:11.963Z,3.53
2019-05-07T12:13:40.070Z,4.40
2019-05-07T12:16:08.129Z,3.80
2019-05-07T12:18:36.178Z,3.70
2019-05-07T12:21:17.391Z,3.33
2019-05-07T12:23:34.699Z,3.57
2019-05-07T12:26:02.753Z,3.27
2019-05-07T12:28:32.585Z,3.10
2019-05-07T12:31:18.354Z,3.30
2019-05-07T12:33:53.802Z,3.70
2019-05-07T12:36:22.737Z,3.73
2019-05-07T12:38:53.330Z,3.17
2019-05-07T12:41:33.156Z,3.67
2019-05-07T12:44:02.505Z,3.83
2019-05-07T12:46:33.142Z,3.40
2019-05-07T12:49:02.851Z,3.80
2019-05-07T12:51:34.567Z,3.50
2019-05-07T12:54:19.479Z,3.70
2019-05-07T12:56:48.071Z,2.97
2019-05-07T12:59:16.119Z,2.70
2019-05-07T13:01:49.725Z,2.90
2019-05-07T13:04:19.438Z,2.93
2019-05-07T13:06:55.100Z,3.10
2019-05-07T13:09:23.282Z,3.53
2019-05-07T13:11:52.602Z,2.90
2019-05-07T13:14:21.829Z,2.83
2019-05-07T13:16:52.073Z,3.10
2019-05-07T13:19:19.861Z,2.70
2019-05-07T13:21:49.933Z,2.80
2019-05-07T13:24:17.719Z,3.37
2019-05-07T13:26:45.999Z,2.67
2019-05-07T13:29:14.037Z,3.20
2019-05-07T13:31:42.267Z,3.30
2019-05-07T13:34:12.257Z,3.57
2019-05-07T13:36:42.266Z,3.17
2019-05-07T13:39:12.285Z,3.80
2019-05-07T13:41:41.954Z,3.27
2019-05-07T13:44:27.246Z,4.83
2019-05-07T13:47:13.357Z,3.57
2019-05-07T13:49:42.772Z,3.90
2019-05-07T13:52:11.783Z,3.37
2019-05-07T13:55:06.030Z,3.00
2019-05-07T13:57:34.083Z,2.90
2019-05-07T14:00:05.035Z,3.13
2019-05-07T14:02:32.680Z,3.20
2019-05-07T14:05:00.798Z,3.97
2019-05-07T14:07:32.264Z,3.50
2019-05-07T14:10:02.106Z,3.37
2019-05-07T14:12:33.450Z,3.57
2019-05-07T14:15:02.162Z,3.20
2019-05-07T14:17:30.050Z,3.13
2019-05-07T14:19:58.096Z,3.17
2019-05-07T14:22:26.130Z,3.37
2019-05-07T14:24:55.111Z,3.10
2019-05-07T14:27:23.155Z,3.20
2019-05-07T14:29:52.144Z,2.43
2019-05-07T14:32:22.046Z,3.10
2019-05-07T14:35:08.153Z,3.13
2019-05-07T14:37:37.873Z,2.70
2019-05-07T14:40:06.339Z,3.90
2019-05-07T14:42:45.087Z,2.80
2019-05-07T14:45:13.467Z,3.20
2019-05-07T14:47:44.443Z,3.93
2019-05-07T14:50:12.313Z,2.80
2019-05-07T14:52:40.396Z,3.07
2019-05-07T14:55:08.502Z,3.10
2019-05-07T14:57:37.731Z,3.23
2019-05-07T15:00:06.251Z,2.97
2019-05-07T15:02:34.294Z,3.20
2019-05-07T15:05:02.851Z,2.87
2019-05-07T15:07:32.717Z,2.73
2019-05-07T15:10:02.307Z,3.20
2019-05-07T15:12:30.446Z,3.10
2019-05-07T15:14:58.569Z,3.10
2019-05-07T15:17:45.467Z,3.03
2019-05-07T15:20:13.932Z,2.97
2019-05-07T15:22:49.472Z,2.47
2019-05-07T15:25:14.020Z,3.00
2019-05-07T15:27:42.926Z,2.53
2019-05-07T15:30:11.408Z,2.77
2019-05-07T15:32:39.735Z,3.00
2019-05-07T15:35:08.127Z,3.03
2019-05-07T15:37:36.174Z,2.57
2019-05-07T15:40:08.050Z,2.73
2019-05-07T15:42:36.154Z,2.80
2019-05-07T15:45:04.967Z,2.30
2019-05-07T15:47:37.639Z,2.47
2019-05-07T15:50:06.123Z,3.03
2019-05-07T15:52:58.147Z,2.90
2019-05-07T15:55:22.537Z,2.70
2019-05-07T15:57:52.182Z,2.50
2019-05-07T16:00:22.270Z,2.57
2019-05-07T16:02:53.829Z,2.57
2019-05-07T16:05:22.441Z,3.07
2019-05-07T16:07:50.992Z,2.57
2019-05-07T16:10:19.090Z,2.50
2019-05-07T16:12:47.331Z,2.50
2019-05-07T16:15:15.529Z,2.03
2019-05-07T16:17:45.211Z,2.67
2019-05-07T16:20:14.510Z,2.50
2019-05-07T16:22:44.189Z,2.40
2019-05-07T16:25:12.314Z,2.13
2019-05-07T16:27:43.129Z,2.63
2019-05-07T16:30:14.005Z,2.83
2019-05-07T16:32:42.336Z,1.93
2019-05-07T16:35:12.424Z,2.77
2019-05-07T16:37:40.302Z,2.80
2019-05-07T16:40:08.501Z,2.40
2019-05-07T16:42:38.164Z,2.83
2019-05-07T16:45:06.889Z,2.70
2019-05-07T16:47:34.927Z,2.17
2019-05-07T16:50:04.205Z,2.83
2019-05-07T16:52:35.057Z,2.03
2019-05-07T16:55:02.957Z,2.60
2019-05-07T16:57:35.608Z,2.70
2019-05-07T17:00:06.702Z,2.13
2019-05-07T17:02:45.258Z,2.60
2019-05-07T17:05:14.443Z,2.50
2019-05-07T17:07:44.198Z,2.50
2019-05-07T17:10:12.522Z,2.63
2019-05-07T17:12:43.326Z,2.20
2019-05-07T17:15:12.415Z,2.00
2019-05-07T17:17:42.635Z,2.07
2019-05-07T17:20:12.717Z,2.10
2019-05-07T17:22:42.684Z,1.87
2019-05-07T17:25:28.878Z,2.37
2019-05-07T17:27:56.927Z,2.23
2019-05-07T17:30:24.970Z,2.33
2019-05-07T17:32:53.026Z,2.10
2019-05-07T17:35:22.417Z,2.73
2019-05-07T17:37:51.857Z,2.10
2019-05-07T17:40:20.066Z,2.23
2019-05-07T17:42:48.177Z,3.40
2019-05-07T17:45:16.301Z,2.70
2019-05-07T17:47:44.575Z,2.40
2019-05-07T17:50:14.255Z,2.30
2019-05-07T17:52:42.370Z,2.33
2019-05-07T17:55:13.074Z,2.27
2019-05-07T17:57:41.790Z,11.83
2019-05-07T18:00:12.749Z,3.33
2019-05-07T18:02:58.306Z,3.23
2019-05-07T18:05:26.353Z,3.67
2019-05-07T18:07:54.461Z,3.40
2019-05-07T18:10:22.535Z,3.37
2019-05-07T18:12:53.308Z,3.60
2019-05-07T18:15:21.711Z,3.80
2019-05-07T18:17:54.186Z,3.60
2019-05-07T18:20:22.305Z,3.73
2019-05-07T18:22:52.135Z,4.50
2019-05-07T18:25:21.721Z,3.77
2019-05-07T18:27:49.850Z,9.97
2019-05-07T18:30:17.994Z,5.07
2019-05-07T18:32:47.664Z,4.27
2019-05-07T18:35:15.770Z,4.27
2019-05-07T18:37:52.867Z,4.07
2019-05-07T18:40:21.491Z,3.37
2019-05-07T18:42:49.706Z,3.70
2019-05-07T18:45:18.615Z,3.90
2019-05-07T18:47:46.682Z,3.70
2019-05-07T18:50:14.795Z,3.90
2019-05-07T18:52:42.908Z,4.40
2019-05-07T18:55:12.005Z,5.00
2019-05-07T18:57:42.068Z,5.10
2019-05-07T19:00:15.990Z,4.50
2019-05-07T19:02:44.623Z,4.33
2019-05-07T19:05:13.148Z,4.03
2019-05-07T19:07:41.990Z,4.63
2019-05-07T19:10:10.103Z,5.90
2019-05-07T19:12:38.450Z,5.23
2019-05-07T19:15:06.722Z,7.07
2019-05-07T19:17:34.774Z,12.87
2019-05-07T19:20:03.501Z,5.83
2019-05-07T19:22:33.069Z,6.10
2019-05-07T19:25:03.019Z,4.93
2019-05-07T19:27:32.734Z,5.60
2019-05-07T19:30:00.938Z,5.37
2019-05-07T19:32:28.994Z,5.30
2019-05-07T19:34:57.512Z,5.27
2019-05-07T19:37:25.580Z,5.50
2019-05-07T19:39:53.614Z,5.30
2019-05-07T19:42:21.662Z,4.90
2019-05-07T19:44:51.414Z,4.70
2019-05-07T19:47:19.486Z,5.23
2019-05-07T19:49:47.599Z,4.97
2019-05-07T19:52:15.682Z,6.00
2019-05-07T19:54:57.695Z,5.00
2019-05-07T19:57:15.154Z,5.67
2019-05-07T19:59:43.270Z,5.47
2019-05-07T20:02:12.960Z,5.27
2019-05-07T20:05:08.272Z,5.30
2019-05-07T20:07:36.406Z,5.70
2019-05-07T20:10:05.326Z,5.17
2019-05-07T20:12:34.094Z,4.53
2019-05-07T20:15:02.875Z,4.43
2019-05-07T20:17:33.469Z,5.30
2019-05-07T20:20:02.935Z,4.93
2019-05-07T20:22:32.813Z,4.73
2019-05-07T20:25:14.836Z,4.73
2019-05-07T20:27:32.234Z,4.60
2019-05-07T20:30:00.027Z,4.40
2019-05-07T20:32:28.074Z,4.87
2019-05-07T20:34:56.309Z,4.87
2019-05-07T20:37:24.334Z,5.07
2019-05-07T20:39:52.456Z,4.70
2019-05-07T20:42:22.899Z,4.87
2019-05-07T20:44:51.970Z,4.30
2019-05-07T20:47:21.989Z,4.70
2019-05-07T20:49:49.948Z,3.63
2019-05-07T20:52:18.021Z,4.30
2019-05-07T20:54:47.764Z,4.47
2019-05-07T20:57:17.625Z,4.60
2019-05-07T20:59:45.670Z,3.70
2019-05-07T21:02:13.726Z,4.53
2019-05-07T21:04:42.452Z,4.63
2019-05-07T21:07:11.818Z,4.50
2019-05-07T21:09:42.105Z,5.57
2019-05-07T21:12:09.813Z,4.60
2019-05-07T21:14:37.867Z,5.50
2019-05-07T21:17:05.926Z,5.60
2019-05-07T21:19:34.473Z,5.60
2019-05-07T21:22:02.545Z,4.70
2019-05-07T21:24:32.871Z,4.50
2019-05-07T21:27:02.424Z,4.80
2019-05-07T21:29:32.463Z,4.87
2019-05-07T21:31:59.884Z,4.80
2019-05-07T21:34:27.941Z,4.93
2019-05-07T21:36:56.006Z,4.40
2019-05-07T21:39:24.044Z,5.10
2019-05-07T21:41:52.141Z,5.60
2019-05-07T21:44:25.009Z,5.13
2019-05-07T21:46:51.844Z,5.27
2019-05-07T21:49:19.787Z,5.63
2019-05-07T21:51:47.842Z,5.23
2019-05-07T21:54:33.898Z,5.23
2019-05-07T21:57:03.584Z,5.40
2019-05-07T21:59:35.688Z,5.27
2019-05-07T22:02:07.697Z,4.93
2019-05-07T22:04:35.816Z,5.67
2019-05-07T22:07:03.842Z,5.07
2019-05-07T22:09:33.080Z,4.90
2019-05-07T22:12:03.536Z,5.47
2019-05-07T22:14:32.855Z,5.37
2019-05-07T22:17:02.037Z,5.30
2019-05-07T22:19:33.601Z,4.90
2019-05-07T22:21:59.978Z,5.07
2019-05-07T22:24:28.802Z,5.13
2019-05-07T22:26:56.851Z,4.87
2019-05-07T22:29:24.888Z,5.27
2019-05-07T22:31:54.592Z,4.57
2019-05-07T22:34:36.454Z,4.20
2019-05-07T22:37:06.070Z,4.53
2019-05-07T22:39:34.135Z,4.47
2019-05-07T22:42:02.441Z,4.60
2019-05-07T22:44:32.137Z,4.40
2019-05-07T22:47:02.757Z,4.40
2019-05-07T22:49:30.785Z,5.37
2019-05-07T22:51:58.850Z,4.83
2019-05-07T22:54:26.897Z,5.67
2019-05-07T22:56:56.599Z,4.77
2019-05-07T22:59:24.674Z,4.80
2019-05-07T23:01:54.962Z,5.00
2019-05-07T23:04:23.064Z,5.13
2019-05-07T23:06:52.737Z,4.80
2019-05-07T23:09:22.328Z,5.70
2019-05-07T23:11:52.660Z,4.47
2019-05-07T23:14:22.567Z,4.87
2019-05-07T23:16:52.583Z,4.60
2019-05-07T23:19:22.138Z,4.20
2019-05-07T23:21:52.181Z,4.77
2019-05-07T23:24:22.701Z,4.13
2019-05-07T23:26:51.168Z,4.67
2019-05-07T23:29:22.508Z,5.20
2019-05-07T23:31:52.830Z,4.90
2019-05-07T23:34:21.987Z,4.00
2019-05-07T23:36:50.086Z,4.70
2019-05-07T23:39:19.831Z,4.90
2019-05-07T23:41:55.290Z,4.53
2019-05-07T23:44:23.335Z,4.07
2019-05-07T23:46:52.001Z,4.40
2019-05-07T23:49:20.305Z,4.57
2019-05-07T23:51:48.343Z,4.47
2019-05-07T23:54:16.382Z,4.40
2019-05-07T23:56:44.433Z,4.80
2019-05-07T23:59:14.907Z,3.87
